Time;durP1;ratioP1;P1;durP2;ratioP2;P2;SDS_P1;SDS_P2;PMS_P1;PMS_P2;Temp;Humidity;BMP_temperature;BMP_pressure;BME280_temperature;BME280_humidity;BME280_pressure;Samples;Min_cycle;Max_cycle;Signal;HPM_P1;HPM_P2
2021/10/20 00:01:44;;;;;;;13.77;2.60;;;;;;;-149.78;100.00;50389.31;5071860;28;20055;-74
2021/10/20 00:04:10;;;;;;;12.35;2.33;;;;;;;-149.78;100.00;50410.81;5064535;28;20024;-75
2021/10/20 00:06:38;;;;;;;7.35;2.63;;;;;;;-149.78;100.00;50385.38;5064736;28;20039;-75
2021/10/20 00:09:05;;;;;;;21.02;3.63;;;;;;;-149.78;100.00;50434.28;5055630;28;21307;-74
2021/10/20 00:11:30;;;;;;;13.15;2.70;;;;;;;-149.78;100.00;50406.91;5059459;28;20507;-74
2021/10/20 00:13:56;;;;;;;8.77;2.83;;;;;;;-149.78;100.00;50416.69;5047221;28;20041;-74
2021/10/20 00:16:24;;;;;;;7.35;2.38;;;;;;;-149.78;100.00;50401.03;5071479;28;20060;-74
2021/10/20 00:18:50;;;;;;;9.40;2.47;;;;;;;-149.78;100.00;50369.75;5066122;28;20032;-74
2021/10/20 00:21:24;;;;;;;9.00;2.20;;;;;;;-149.78;100.00;50385.38;5049799;28;20044;-74
2021/10/20 00:23:50;;;;;;;9.25;2.05;;;;;;;-149.78;100.00;50428.41;5038080;28;20074;-74
2021/10/20 00:26:16;;;;;;;8.23;2.05;;;;;;;-149.78;100.00;50397.13;5066140;28;20116;-74
2021/10/20 00:28:42;;;;;;;12.40;2.63;;;;;;;-149.78;100.00;50391.25;5055482;28;20608;-74
2021/10/20 00:31:08;;;;;;;10.73;2.70;;;;;;;-149.78;100.00;50410.81;5086896;28;20056;-74
2021/10/20 00:33:34;;;;;;;12.57;3.50;;;;;;;-149.78;100.00;50393.22;5061688;28;20070;-74
2021/10/20 00:36:00;;;;;;;11.02;2.25;;;;;;;-149.78;100.00;50389.31;5055906;28;20504;-74
2021/10/20 00:38:26;;;;;;;10.50;3.33;;;;;;;-149.78;100.00;50416.69;5057383;28;20037;-74
2021/10/20 00:40:52;;;;;;;12.40;2.38;;;;;;;-149.78;100.00;50424.50;5063325;28;20053;-74
2021/10/20 00:43:19;;;;;;;13.27;2.30;;;;;;;-149.78;100.00;50418.63;5053913;28;20041;-74
2021/10/20 00:45:45;;;;;;;12.65;2.90;;;;;;;-149.78;100.00;50385.38;5053194;28;20037;-74
2021/10/20 00:48:11;;;;;;;9.07;2.22;;;;;;;-149.78;100.00;50420.59;5065400;28;20040;-74
2021/10/20 00:50:36;;;;;;;11.77;3.03;;;;;;;-149.78;100.00;50404.94;5059544;28;20060;-74
2021/10/20 00:53:03;;;;;;;6.93;1.73;;;;;;;-149.78;100.00;50412.78;5068748;28;20048;-75
2021/10/20 00:55:29;;;;;;;15.43;2.78;;;;;;;-149.78;100.00;50434.28;5060143;28;20035;-74
2021/10/20 00:57:55;;;;;;;11.82;2.30;;;;;;;-149.78;100.00;50401.03;5060441;28;20033;-75
2021/10/20 01:00:22;;;;;;;12.00;2.22;;;;;;;-149.78;100.00;50412.78;5062972;28;20400;-75
2021/10/20 01:02:47;;;;;;;15.60;2.65;;;;;;;-149.78;100.00;50404.94;5069227;28;20040;-74
2021/10/20 01:05:13;;;;;;;9.68;2.20;;;;;;;-149.78;100.00;50440.16;5066569;28;20028;-74
2021/10/20 01:07:40;;;;;;;11.38;3.22;;;;;;;-149.78;100.00;50424.50;5054896;28;20033;-74
2021/10/20 01:10:08;;;;;;;8.98;2.78;;;;;;;-149.78;100.00;50416.69;5079124;28;20028;-75
2021/10/20 01:12:35;;;;;;;9.85;2.25;;;;;;;-149.78;100.00;50381.47;5065628;28;20091;-74
2021/10/20 01:15:05;;;;;;;14.00;2.50;;;;;;;-149.78;100.00;50420.59;5064068;28;20082;-74
2021/10/20 01:17:31;;;;;;;12.38;2.97;;;;;;;-149.78;100.00;50434.28;5063791;28;20037;-74
2021/10/20 01:20:02;;;;;;;18.08;2.97;;;;;;;-149.78;100.00;50397.13;5060728;28;20093;-74
2021/10/20 01:22:29;;;;;;;10.27;2.58;;;;;;;-149.78;100.00;50408.84;5064684;28;20070;-74
2021/10/20 01:24:54;;;;;;;9.88;2.50;;;;;;;-149.78;100.00;50401.03;5047634;28;20124;-74
2021/10/20 01:27:21;;;;;;;9.68;2.13;;;;;;;-149.78;100.00;50381.47;5066061;28;20531;-74
2021/10/20 01:29:46;;;;;;;11.90;2.95;;;;;;;-149.78;100.00;50420.59;5065506;28;20123;-74
2021/10/20 01:32:12;;;;;;;13.77;2.90;;;;;;;-149.78;100.00;50444.06;5041108;28;20368;-74
2021/10/20 01:34:38;;;;;;;9.50;2.55;;;;;;;-149.78;100.00;50385.38;5070586;28;20039;-74
2021/10/20 01:37:05;;;;;;;15.15;2.75;;;;;;;-149.78;100.00;50412.78;5052053;28;20594;-74
2021/10/20 01:39:32;;;;;;;14.27;2.50;;;;;;;-149.78;100.00;50408.84;5068827;28;20070;-74
2021/10/20 01:41:59;;;;;;;14.13;2.72;;;;;;;-149.78;100.00;50416.69;5066076;28;20053;-74
2021/10/20 01:44:25;;;;;;;13.20;2.55;;;;;;;-149.78;100.00;50416.69;5065034;28;20037;-74
2021/10/20 01:46:51;;;;;;;11.25;2.03;;;;;;;-149.78;100.00;50428.41;5065665;28;20071;-75
2021/10/20 01:49:19;;;;;;;16.48;2.88;;;;;;;-149.78;100.00;50436.25;5064725;28;20032;-74
2021/10/20 01:51:45;;;;;;;8.07;2.72;;;;;;;-149.78;100.00;50406.91;5062435;28;20518;-74
2021/10/20 01:54:12;;;;;;;11.80;2.50;;;;;;;-149.78;100.00;50436.25;5057255;28;20041;-74
2021/10/20 01:56:40;;;;;;;9.95;2.65;;;;;;;-149.78;100.00;50416.69;5070698;28;20036;-73
2021/10/20 01:59:05;;;;;;;8.68;2.00;;;;;;;-149.78;100.00;50436.25;5057471;28;20037;-74
2021/10/20 02:01:31;;;;;;;13.57;2.47;;;;;;;-149.78;100.00;50424.50;5067546;28;20029;-74
2021/10/20 02:03:57;;;;;;;12.82;2.40;;;;;;;-149.78;100.00;50440.16;5064488;28;20040;-74
2021/10/20 02:06:22;;;;;;;12.18;2.33;;;;;;;-149.78;100.00;50401.03;5058622;28;20037;-74
2021/10/20 02:08:48;;;;;;;10.88;2.40;;;;;;;-149.78;100.00;50438.19;5062552;28;20029;-74
2021/10/20 02:11:17;;;;;;;14.00;2.97;;;;;;;-149.78;100.00;50471.44;5067180;28;20450;-74
2021/10/20 02:13:43;;;;;;;22.27;4.30;;;;;;;-149.78;100.00;50408.84;5064319;28;20511;-74
2021/10/20 02:16:09;;;;;;;10.98;2.50;;;;;;;-149.78;100.00;50440.16;5067427;28;20032;-74
2021/10/20 02:18:35;;;;;;;12.90;2.47;;;;;;;-149.78;100.00;50430.38;5065945;28;20037;-74
2021/10/20 02:21:02;;;;;;;14.23;2.58;;;;;;;-149.78;100.00;50469.50;5071837;28;20123;-74
2021/10/20 02:23:31;;;;;;;11.48;2.67;;;;;;;-149.78;100.00;50432.31;5069594;28;20403;-74
2021/10/20 02:25:58;;;;;;;15.50;2.78;;;;;;;-149.78;100.00;50412.78;5060171;28;20101;-74
2021/10/20 02:28:23;;;;;;;11.10;2.60;;;;;;;-149.78;100.00;50412.78;5072581;28;20040;-74
2021/10/20 02:30:50;;;;;;;15.88;2.63;;;;;;;-149.78;100.00;50428.41;5066295;28;20048;-74
2021/10/20 02:33:15;;;;;;;13.48;2.47;;;;;;;-149.78;100.00;50424.50;5057942;28;20137;-74
2021/10/20 02:35:41;;;;;;;10.52;2.40;;;;;;;-149.78;100.00;50422.56;5067789;28;20033;-74
2021/10/20 02:38:07;;;;;;;10.43;2.40;;;;;;;-149.78;100.00;50436.25;5071557;28;20052;-74
2021/10/20 02:40:32;;;;;;;11.07;2.35;;;;;;;-149.78;100.00;50432.31;5063737;28;20392;-74
2021/10/20 02:42:58;;;;;;;10.95;2.30;;;;;;;-149.78;100.00;50459.72;5067720;28;20032;-74
2021/10/20 02:45:24;;;;;;;11.85;2.50;;;;;;;-149.78;100.00;50440.16;5081155;28;20028;-74
2021/10/20 02:47:49;;;;;;;14.43;3.00;;;;;;;-149.78;100.00;50428.41;5064848;28;20035;-74
2021/10/20 02:50:15;;;;;;;13.52;2.67;;;;;;;-149.78;100.00;50447.97;5064048;28;20085;-74
2021/10/20 02:52:41;;;;;;;13.75;2.58;;;;;;;-149.78;100.00;50410.81;5058532;28;20044;-74
2021/10/20 02:55:07;;;;;;;10.02;2.88;;;;;;;-149.78;100.00;50422.56;5054665;28;20033;-74
2021/10/20 02:57:33;;;;;;;13.80;2.33;;;;;;;-149.78;100.00;50416.69;5069192;28;20033;-74
2021/10/20 02:59:59;;;;;;;14.73;3.17;;;;;;;-149.78;100.00;50424.50;5050302;28;20033;-74
2021/10/20 03:02:26;;;;;;;15.40;2.40;;;;;;;-149.78;100.00;50451.88;5062428;28;20071;-74
2021/10/20 03:04:52;;;;;;;13.02;3.72;;;;;;;-149.78;100.00;50459.72;5063060;28;20075;-74
2021/10/20 03:07:18;;;;;;;6.88;2.10;;;;;;;-149.78;100.00;50432.31;5073546;28;20048;-74
2021/10/20 03:09:44;;;;;;;14.50;2.33;;;;;;;-149.78;100.00;50420.59;5060081;28;20062;-74
2021/10/20 03:12:09;;;;;;;9.60;2.25;;;;;;;-149.78;100.00;50455.81;5032804;28;20047;-74
2021/10/20 03:14:35;;;;;;;14.77;2.38;;;;;;;-149.78;100.00;50420.59;5058214;28;20029;-74
2021/10/20 03:17:00;;;;;;;13.50;2.60;;;;;;;-149.78;100.00;50473.41;5058375;28;20045;-74
2021/10/20 03:19:26;;;;;;;18.52;4.05;;;;;;;-149.78;100.00;50447.97;5057240;28;20033;-74
2021/10/20 03:21:51;;;;;;;12.63;2.70;;;;;;;-149.78;100.00;50430.38;5060117;28;20127;-74
2021/10/20 03:24:17;;;;;;;12.13;2.60;;;;;;;-149.78;100.00;50436.25;5068298;28;20033;-74
2021/10/20 03:26:44;;;;;;;11.25;2.58;;;;;;;-149.78;100.00;50440.16;5068968;28;20044;-74
2021/10/20 03:29:09;;;;;;;13.07;2.10;;;;;;;-149.78;100.00;50424.50;5064137;28;20033;-74
2021/10/20 03:31:35;;;;;;;9.75;2.05;;;;;;;-149.78;100.00;50459.72;5046626;28;20036;-74
2021/10/20 03:34:02;;;;;;;11.45;2.30;;;;;;;-149.78;100.00;50461.66;5063546;28;20033;-74
2021/10/20 03:36:28;;;;;;;9.15;2.47;;;;;;;-149.78;100.00;50440.16;5051015;28;20032;-74
2021/10/20 03:38:54;;;;;;;13.95;2.67;;;;;;;-149.78;100.00;50447.97;5044448;28;20072;-74
2021/10/20 03:41:21;;;;;;;25.23;3.22;;;;;;;-149.78;100.00;50463.63;5062454;28;20048;-74
2021/10/20 03:43:46;;;;;;;15.60;2.58;;;;;;;-149.78;100.00;50438.19;5072901;28;20039;-74
2021/10/20 03:46:12;;;;;;;10.05;2.20;;;;;;;-149.78;100.00;50459.72;5068435;28;20407;-74
2021/10/20 03:48:38;;;;;;;11.85;2.92;;;;;;;-149.78;100.00;50451.88;5041693;28;20055;-74
2021/10/20 03:51:04;;;;;;;8.88;2.10;;;;;;;-149.78;100.00;50467.53;5055344;28;20038;-74
2021/10/20 03:53:29;;;;;;;13.20;3.47;;;;;;;-149.78;100.00;50455.81;5072293;28;20032;-74
2021/10/20 03:55:55;;;;;;;9.65;2.05;;;;;;;-149.78;100.00;50420.59;5050808;28;20035;-74
2021/10/20 03:58:22;;;;;;;9.52;2.20;;;;;;;-149.78;100.00;50461.66;5053231;28;20481;-74
2021/10/20 04:00:50;;;;;;;15.52;2.90;;;;;;;-149.78;100.00;50436.25;5050120;28;20493;-74
2021/10/20 04:03:16;;;;;;;16.90;2.42;;;;;;;-149.78;100.00;50467.53;5059474;28;20037;-74
2021/10/20 04:05:43;;;;;;;13.30;3.17;;;;;;;-149.78;100.00;50406.91;5052376;28;20041;-74
2021/10/20 04:08:08;;;;;;;10.45;2.40;;;;;;;-149.78;100.00;50440.16;5058066;28;20025;-75
2021/10/20 04:10:34;;;;;;;11.30;2.50;;;;;;;-149.78;100.00;50410.81;5050798;28;20046;-74
2021/10/20 04:13:01;;;;;;;17.08;3.88;;;;;;;-149.78;100.00;50436.25;5052718;28;20040;-74
2021/10/20 04:15:27;;;;;;;17.00;2.75;;;;;;;-149.78;100.00;50432.31;5046990;28;20028;-74
2021/10/20 04:17:52;;;;;;;16.38;2.40;;;;;;;-149.78;100.00;50428.41;5060625;28;20052;-74
2021/10/20 04:20:20;;;;;;;13.40;3.03;;;;;;;-149.78;100.00;50436.25;5064941;28;20060;-74
2021/10/20 04:22:48;;;;;;;14.65;2.38;;;;;;;-149.78;100.00;50451.88;5057871;28;20060;-74
2021/10/20 04:25:14;;;;;;;14.95;2.50;;;;;;;-149.78;100.00;50440.16;5066878;28;20037;-74
2021/10/20 04:27:40;;;;;;;11.95;1.95;;;;;;;-149.78;100.00;50479.28;5051921;28;20037;-74
2021/10/20 04:30:09;;;;;;;17.88;2.88;;;;;;;-149.78;100.00;50465.56;5061642;28;20083;-74
2021/10/20 04:32:35;;;;;;;13.55;2.42;;;;;;;-149.78;100.00;50416.69;5054581;28;20048;-74
2021/10/20 04:35:01;;;;;;;10.93;2.70;;;;;;;-149.78;100.00;50444.06;5043827;28;20041;-74
2021/10/20 04:37:27;;;;;;;13.02;2.15;;;;;;;-149.78;100.00;50453.84;5069416;28;20028;-74
2021/10/20 04:39:59;;;;;;;13.02;2.40;;;;;;;-149.78;100.00;50447.97;5054777;28;20033;-74
2021/10/20 04:42:26;;;;;;;11.00;2.15;;;;;;;-149.78;100.00;50420.59;5064546;28;20051;-74
2021/10/20 04:44:53;;;;;;;9.48;2.42;;;;;;;-149.78;100.00;50424.50;5058242;28;20028;-74
2021/10/20 04:47:19;;;;;;;12.13;2.38;;;;;;;-149.78;100.00;50436.25;5061014;28;20025;-74
2021/10/20 04:49:44;;;;;;;13.68;2.33;;;;;;;-149.78;100.00;50432.31;5072008;28;20090;-74
2021/10/20 04:52:10;;;;;;;13.48;2.60;;;;;;;-149.78;100.00;50463.63;5070010;28;20059;-74
2021/10/20 04:54:36;;;;;;;15.65;2.75;;;;;;;-149.78;100.00;50436.25;5065478;28;20031;-74
2021/10/20 04:57:02;;;;;;;13.27;2.30;;;;;;;-149.78;100.00;50463.63;5071786;28;20032;-74
2021/10/20 04:59:31;;;;;;;13.27;2.30;;;;;;;-149.78;100.00;50451.88;5066486;28;20028;-74
2021/10/20 05:02:01;;;;;;;10.65;2.63;;;;;;;-149.78;100.00;50432.31;5068594;28;20040;-74
2021/10/20 05:04:29;;;;;;;16.73;2.45;;;;;;;-149.78;100.00;50436.25;5072598;28;20055;-74
2021/10/20 05:06:54;;;;;;;12.98;2.47;;;;;;;-149.78;100.00;50447.97;5061709;28;20024;-74
2021/10/20 05:09:20;;;;;;;15.25;2.40;;;;;;;-149.78;100.00;50469.50;5044700;28;20039;-74
2021/10/20 05:11:46;;;;;;;14.77;3.08;;;;;;;-149.78;100.00;50455.81;5070053;28;20063;-74
2021/10/20 05:14:11;;;;;;;14.55;2.80;;;;;;;-149.78;100.00;50438.19;5066668;28;20040;-74
2021/10/20 05:16:37;;;;;;;15.00;2.80;;;;;;;-149.78;100.00;50428.41;5059830;28;20041;-74
2021/10/20 05:19:03;;;;;;;13.15;2.90;;;;;;;-149.78;100.00;50491.00;5066191;28;20032;-74
2021/10/20 05:21:29;;;;;;;11.50;2.20;;;;;;;-149.78;100.00;50436.25;5039131;28;20487;-74
2021/10/20 05:23:55;;;;;;;16.08;2.78;;;;;;;-149.78;100.00;50455.81;5066591;28;20033;-74
2021/10/20 05:26:20;;;;;;;14.00;2.88;;;;;;;-149.78;100.00;50436.25;5067445;28;20056;-74
2021/10/20 05:28:46;;;;;;;12.63;2.65;;;;;;;-149.78;100.00;50487.09;5057494;28;20033;-74
2021/10/20 05:31:13;;;;;;;14.07;3.08;;;;;;;-149.78;100.00;50471.44;5061121;28;20047;-74
2021/10/20 05:33:39;;;;;;;13.05;2.28;;;;;;;-149.78;100.00;50471.44;5062038;28;20033;-74
2021/10/20 05:36:05;;;;;;;19.02;3.55;;;;;;;-149.78;100.00;50440.16;5060706;28;20063;-74
2021/10/20 05:38:31;;;;;;;11.07;2.80;;;;;;;-149.78;100.00;50475.34;5067436;28;20040;-74
2021/10/20 05:40:57;;;;;;;14.50;3.78;;;;;;;-149.78;100.00;50451.88;5063857;28;20044;-74
2021/10/20 05:43:23;;;;;;;14.50;2.80;;;;;;;-149.78;100.00;50473.41;5063680;28;20494;-74
2021/10/20 05:45:49;;;;;;;19.27;3.42;;;;;;;-149.78;100.00;50469.50;5061976;28;20028;-74
2021/10/20 05:48:15;;;;;;;12.35;3.33;;;;;;;-149.78;100.00;50465.56;5060419;28;20029;-74
2021/10/20 05:50:42;;;;;;;11.65;3.13;;;;;;;-149.78;100.00;50432.31;5066696;28;20466;-74
2021/10/20 05:53:08;;;;;;;23.58;3.75;;;;;;;-149.78;100.00;50502.75;5061805;28;20037;-74
2021/10/20 05:55:34;;;;;;;15.85;3.67;;;;;;;-149.78;100.00;50432.31;5065353;28;20044;-74
2021/10/20 05:57:59;;;;;;;15.50;3.38;;;;;;;-149.78;100.00;50410.81;5066881;28;20115;-74
2021/10/20 06:00:25;;;;;;;18.02;3.50;;;;;;;-149.78;100.00;50430.38;5045983;28;20025;-74
2021/10/20 06:02:51;;;;;;;19.42;3.55;;;;;;;-149.78;100.00;50455.81;5062885;28;20037;-75
2021/10/20 06:05:17;;;;;;;11.25;2.50;;;;;;;-149.78;100.00;50485.13;5064482;28;20040;-73
2021/10/20 06:07:45;;;;;;;17.95;3.00;;;;;;;-149.78;100.00;50475.34;5065587;28;20633;-73
2021/10/20 06:10:13;;;;;;;12.93;3.05;;;;;;;-149.78;100.00;50467.53;5067434;28;20037;-71
2021/10/20 06:12:40;;;;;;;9.57;2.85;;;;;;;-149.78;100.00;50487.09;5066704;28;20036;-74
2021/10/20 06:15:09;;;;;;;9.38;2.70;;;;;;;-149.78;100.00;50479.28;5064916;28;20464;-73
2021/10/20 06:17:35;;;;;;;14.07;2.83;;;;;;;-149.78;100.00;50467.53;5072857;28;20063;-75
2021/10/20 06:20:03;;;;;;;11.75;2.78;;;;;;;-149.78;100.00;50449.94;5061526;28;20040;-75
2021/10/20 06:22:29;;;;;;;13.63;2.95;;;;;;;-149.78;100.00;50471.44;5067349;28;20031;-78
2021/10/20 06:24:55;;;;;;;13.30;2.78;;;;;;;-149.78;100.00;50475.34;5050517;28;20036;-71
2021/10/20 06:27:21;;;;;;;19.48;3.28;;;;;;;-149.78;100.00;50455.81;5067029;28;20028;-75
2021/10/20 06:29:46;;;;;;;17.15;3.35;;;;;;;-149.78;100.00;50455.81;5072479;28;20566;-74
2021/10/20 06:32:12;;;;;;;13.48;2.95;;;;;;;-149.78;100.00;50500.78;5066861;28;20036;-74
2021/10/20 06:34:37;;;;;;;19.88;3.50;;;;;;;-149.78;100.00;50483.19;5065780;28;20388;-74
2021/10/20 06:37:03;;;;;;;14.95;3.20;;;;;;;-149.78;100.00;50440.16;5066294;28;20051;-74
2021/10/20 06:39:29;;;;;;;19.10;2.92;;;;;;;-149.78;100.00;50451.88;5071544;28;20387;-74
2021/10/20 06:41:55;;;;;;;18.48;3.60;;;;;;;-149.78;100.00;50475.34;5041965;28;20116;-74
2021/10/20 06:44:21;;;;;;;14.57;3.63;;;;;;;-149.78;100.00;50459.72;5071375;28;20461;-75
2021/10/20 06:46:47;;;;;;;16.45;3.47;;;;;;;-149.78;100.00;50451.88;5065519;28;20124;-74
2021/10/20 06:49:13;;;;;;;18.75;3.10;;;;;;;-149.78;100.00;50440.16;5070046;28;20070;-75
2021/10/20 06:51:39;;;;;;;14.00;3.95;;;;;;;-149.78;100.00;50487.09;5058878;28;20102;-75
2021/10/20 06:54:05;;;;;;;15.43;4.45;;;;;;;-149.78;100.00;50463.63;5062218;28;20029;-75
2021/10/20 06:56:31;;;;;;;17.00;5.13;;;;;;;-149.78;100.00;50489.03;5061185;28;20041;-75
2021/10/20 06:58:57;;;;;;;18.20;4.85;;;;;;;-149.78;100.00;50467.53;5067619;28;20028;-75
2021/10/20 07:01:23;;;;;;;17.20;5.72;;;;;;;-149.78;100.00;50463.63;5044329;28;20119;-76
2021/10/20 07:03:48;;;;;;;17.05;5.00;;;;;;;-149.78;100.00;50487.09;5063516;28;20443;-79
2021/10/20 07:06:14;;;;;;;14.55;5.38;;;;;;;-149.78;100.00;50467.53;5064562;28;20383;-78
2021/10/20 07:08:40;;;;;;;20.80;4.95;;;;;;;-149.78;100.00;50457.75;5055599;28;20033;-74
2021/10/20 07:11:05;;;;;;;15.63;4.57;;;;;;;-149.78;100.00;50489.03;5056852;28;20037;-74
2021/10/20 07:13:31;;;;;;;17.92;5.80;;;;;;;-149.78;100.00;50502.75;5061386;28;20064;-74
2021/10/20 07:16:00;;;;;;;20.35;5.68;;;;;;;-149.78;100.00;50451.88;5067116;28;20534;-77
2021/10/20 07:18:29;;;;;;;24.00;5.63;;;;;;;-149.78;100.00;50475.34;5039325;28;20040;-77
2021/10/20 07:20:55;;;;;;;17.83;5.38;;;;;;;-149.78;100.00;50487.09;5086311;28;20361;-78
2021/10/20 07:23:20;;;;;;;18.95;5.55;;;;;;;-149.78;100.00;50471.44;5062678;28;20032;-77
2021/10/20 07:25:46;;;;;;;19.73;5.20;;;;;;;-149.78;100.00;50491.00;5069043;28;20032;-78
2021/10/20 07:28:12;;;;;;;16.90;5.68;;;;;;;-149.78;100.00;50491.00;5040713;28;20055;-77
2021/10/20 07:30:38;;;;;;;19.98;6.25;;;;;;;-149.78;100.00;50449.94;5070708;28;20040;-78
2021/10/20 07:33:04;;;;;;;17.05;4.68;;;;;;;-149.78;100.00;50467.53;5071970;28;20032;-77
2021/10/20 07:35:30;;;;;;;19.55;5.20;;;;;;;-149.78;100.00;50504.69;5065455;28;20102;-76
2021/10/20 07:37:55;;;;;;;19.60;4.90;;;;;;;-149.78;100.00;50451.88;5065180;28;20468;-77
2021/10/20 07:40:21;;;;;;;16.52;4.55;;;;;;;-149.78;100.00;50498.81;5069476;28;20029;-76
2021/10/20 07:42:47;;;;;;;14.63;4.47;;;;;;;-149.78;100.00;50489.03;5033678;28;20057;-77
2021/10/20 07:45:16;;;;;;;16.17;5.00;;;;;;;-149.78;100.00;50424.50;5034532;28;20032;-77
2021/10/20 07:47:43;;;;;;;19.60;5.03;;;;;;;-149.78;100.00;50494.91;5061173;28;20035;-77
2021/10/20 07:50:08;;;;;;;15.25;4.65;;;;;;;-149.78;100.00;50479.28;5065221;28;20033;-77
2021/10/20 07:52:34;;;;;;;17.58;4.68;;;;;;;-149.78;100.00;50479.28;5070075;28;20062;-77
2021/10/20 07:55:01;;;;;;;22.13;5.82;;;;;;;-149.78;100.00;50467.53;5061212;28;20029;-77
2021/10/20 07:57:29;;;;;;;22.80;5.68;;;;;;;-149.78;100.00;50487.09;5071767;28;20439;-77
2021/10/20 07:59:55;;;;;;;20.27;4.78;;;;;;;-149.78;100.00;50434.28;5066366;28;20024;-76
2021/10/20 08:02:21;;;;;;;24.58;4.82;;;;;;;-149.78;100.00;50461.66;5062253;28;20033;-76
2021/10/20 08:04:47;;;;;;;18.33;4.82;;;;;;;-149.78;100.00;50487.09;5055673;28;20404;-76
2021/10/20 08:07:14;;;;;;;17.80;4.65;;;;;;;-149.78;100.00;50434.28;5065825;28;20051;-76
2021/10/20 08:09:40;;;;;;;21.63;5.25;;;;;;;-149.78;100.00;50440.16;5058533;28;20487;-76
2021/10/20 08:12:05;;;;;;;16.20;4.60;;;;;;;-149.78;100.00;50428.41;5065966;28;20434;-76
2021/10/20 08:14:33;;;;;;;21.33;4.72;;;;;;;-149.78;100.00;50440.16;5058570;28;20111;-76
2021/10/20 08:16:59;;;;;;;14.75;4.90;;;;;;;-149.78;100.00;50471.44;5065238;28;20031;-76
2021/10/20 08:19:24;;;;;;;16.27;4.47;;;;;;;-149.78;100.00;50469.50;5064184;28;20037;-76
2021/10/20 08:21:50;;;;;;;18.45;4.40;;;;;;;-149.78;100.00;50451.88;5066281;28;20100;-76
2021/10/20 08:24:16;;;;;;;18.52;4.35;;;;;;;-149.78;100.00;50436.25;5069195;28;20463;-79
2021/10/20 08:26:42;;;;;;;25.70;4.78;;;;;;;-149.78;100.00;50491.00;5067581;28;20033;-75
2021/10/20 08:29:10;;;;;;;18.48;3.65;;;;;;;-149.78;100.00;50461.66;5062061;28;20029;-76
2021/10/20 08:31:36;;;;;;;17.70;4.28;;;;;;;-149.78;100.00;50453.84;5054248;28;20036;-76
2021/10/20 08:34:02;;;;;;;20.55;4.95;;;;;;;-149.78;100.00;50481.22;5066551;28;20143;-75
2021/10/20 08:36:28;;;;;;;14.93;3.45;;;;;;;-149.78;100.00;50471.44;5063650;28;20418;-76
2021/10/20 08:38:54;;;;;;;15.63;3.65;;;;;;;-149.78;100.00;50465.56;5037842;28;20044;-76
2021/10/20 08:41:20;;;;;;;12.45;3.30;;;;;;;-149.78;100.00;50451.88;5061530;28;20053;-73
2021/10/20 08:43:46;;;;;;;15.23;4.03;;;;;;;-149.78;100.00;50426.47;5063368;28;20075;-73
2021/10/20 08:46:12;;;;;;;19.98;3.40;;;;;;;-149.78;100.00;50420.59;5069138;28;20028;-74
2021/10/20 08:48:40;;;;;;;14.10;3.80;;;;;;;-149.78;100.00;50483.19;5061758;28;20029;-73
2021/10/20 08:51:06;;;;;;;17.40;3.45;;;;;;;-149.78;100.00;50469.50;5053422;28;20464;-74
2021/10/20 08:53:32;;;;;;;20.50;3.75;;;;;;;-149.78;100.00;50444.06;5054823;28;20112;-73
2021/10/20 08:56:00;;;;;;;15.23;5.30;;;;;;;-149.78;100.00;50457.75;5067057;28;20403;-74
2021/10/20 08:58:26;;;;;;;24.63;4.32;;;;;;;-149.78;100.00;50469.50;5059372;28;20481;-73
2021/10/20 09:00:51;;;;;;;13.38;3.40;;;;;;;-149.78;100.00;50420.59;5050998;28;20085;-73
2021/10/20 09:03:17;;;;;;;15.25;3.28;;;;;;;-149.78;100.00;50485.13;5059862;28;20035;-73
2021/10/20 09:05:43;;;;;;;18.08;4.07;;;;;;;-149.78;100.00;50416.69;5048888;28;20109;-73
2021/10/20 09:08:09;;;;;;;13.52;3.63;;;;;;;-149.78;100.00;50440.16;5058303;28;20039;-73
2021/10/20 09:10:35;;;;;;;12.40;3.17;;;;;;;-149.78;100.00;50463.63;5065598;28;20052;-73
2021/10/20 09:13:02;;;;;;;9.65;2.92;;;;;;;-149.78;100.00;50447.97;5053428;28;20041;-73
2021/10/20 09:15:31;;;;;;;9.45;2.67;;;;;;;-149.78;100.00;50447.97;5052970;28;20039;-73
2021/10/20 09:18:08;;;;;;;8.70;3.00;;;;;;;-149.78;100.00;50479.28;5061380;28;20035;-73
2021/10/20 09:20:42;;;;;;;16.50;3.03;;;;;;;-149.78;100.00;50451.88;5052528;28;20116;-73
2021/10/20 09:23:17;;;;;;;8.85;2.15;;;;;;;-149.78;100.00;50447.97;5061711;28;20035;-74
2021/10/20 09:25:43;;;;;;;7.07;2.58;;;;;;;-149.78;100.00;50420.59;5064225;28;20029;-73
2021/10/20 09:28:18;;;;;;;11.45;3.33;;;;;;;-149.78;100.00;50467.53;5058329;28;20452;-73
2021/10/20 09:30:44;;;;;;;9.50;3.03;;;;;;;-149.78;100.00;50481.22;5061472;28;20024;-74
2021/10/20 09:33:10;;;;;;;10.38;2.92;;;;;;;-149.78;100.00;50451.88;5064931;28;20510;-74
2021/10/20 09:35:37;;;;;;;7.25;2.47;;;;;;;-149.78;100.00;50453.84;5055504;28;20038;-74
2021/10/20 09:38:03;;;;;;;8.43;2.28;;;;;;;-149.78;100.00;50447.97;5058244;28;20128;-74
2021/10/20 09:40:41;;;;;;;10.13;2.15;;;;;;;-149.78;100.00;50412.78;5062266;28;20029;-74
2021/10/20 09:43:09;;;;;;;4.10;1.80;;;;;;;-149.78;100.00;50449.94;5075392;28;20036;-75
2021/10/20 09:45:37;;;;;;;6.30;2.60;;;;;;;-149.78;100.00;50467.53;5070975;28;20689;-74
2021/10/20 09:48:20;;;;;;;7.95;2.22;;;;;;;-149.78;100.00;50373.66;5054444;28;20050;-73
2021/10/20 09:50:55;;;;;;;7.57;2.03;;;;;;;-149.78;100.00;50346.28;5055027;28;20439;-75
2021/10/20 09:53:21;;;;;;;3.67;1.60;;;;;;;-149.78;100.00;50330.63;5054798;28;20550;-74
2021/10/20 09:55:47;;;;;;;4.13;1.38;;;;;;;-149.78;100.00;50365.84;5059657;28;20037;-74
2021/10/20 09:58:14;;;;;;;4.90;1.33;;;;;;;-149.78;100.00;50342.38;5040208;28;20037;-74
2021/10/20 10:00:42;;;;;;;3.67;1.40;;;;;;;-149.78;100.00;50369.75;5043681;28;20488;-75
2021/10/20 10:03:09;;;;;;;6.28;1.60;;;;;;;-149.78;100.00;50393.22;5060680;28;20041;-74
2021/10/20 10:05:35;;;;;;;3.38;1.27;;;;;;;-149.78;100.00;50373.66;5063174;28;20033;-74
2021/10/20 10:08:03;;;;;;;5.15;1.25;;;;;;;-149.78;100.00;50369.75;5069332;28;20524;-75
2021/10/20 10:10:29;;;;;;;1.85;1.10;;;;;;;-149.78;100.00;50244.59;5069313;28;20085;-75
2021/10/20 10:13:04;;;;;;;3.75;1.20;;;;;;;-149.78;100.00;50244.59;5031883;28;20040;-73
2021/10/20 10:15:30;;;;;;;3.13;1.35;;;;;;;-149.78;88.11;50264.13;5068377;28;20032;-74
2021/10/20 10:17:56;;;;;;;1.23;0.82;;;;;;;-149.78;75.13;50205.47;5063334;28;20510;-74
2021/10/20 10:20:31;;;;;;;2.05;1.02;;;;;;;-149.78;77.75;50256.31;5058836;28;20037;-74
2021/10/20 10:23:06;;;;;;;3.83;1.77;;;;;;;-149.78;83.50;50283.69;5057333;28;20376;-74
2021/10/20 10:25:40;;;;;;;2.35;1.10;;;;;;;-149.78;97.98;50307.16;5022068;28;20040;-74
2021/10/20 10:28:19;;;;;;;2.78;1.00;;;;;;;-149.78;100.00;50338.44;5062276;28;20107;-74
2021/10/20 10:30:50;;;;;;;2.55;0.98;;;;;;;-149.78;100.00;50318.91;5054615;28;20036;-73
2021/10/20 10:33:18;;;;;;;1.70;0.90;;;;;;;-149.78;100.00;50377.56;5055775;28;20029;-74
2021/10/20 10:35:44;;;;;;;3.13;1.05;;;;;;;-149.78;100.00;50348.22;5058637;28;20384;-73
2021/10/20 10:38:09;;;;;;;4.60;1.27;;;;;;;-149.78;100.00;50393.22;5058118;28;20056;-73
2021/10/20 10:40:35;;;;;;;2.75;0.90;;;;;;;-149.78;100.00;50420.59;5062472;28;20032;-73
2021/10/20 10:43:06;;;;;;;2.17;1.10;;;;;;;-149.78;100.00;50393.22;5068240;28;20476;-73
2021/10/20 10:45:33;;;;;;;4.47;1.30;;;;;;;-149.78;100.00;50428.41;5068683;28;20024;-73
2021/10/20 10:48:06;;;;;;;6.57;1.50;;;;;;;-149.78;100.00;50377.56;5055405;28;20059;-73
2021/10/20 10:50:49;;;;;;;2.83;1.20;;;;;;;-149.78;100.00;50432.31;5054745;28;20028;-73
2021/10/20 10:53:29;;;;;;;4.88;1.23;;;;;;;-149.78;100.00;50385.38;5060025;28;20573;-74
2021/10/20 10:56:01;;;;;;;4.40;1.05;;;;;;;-149.78;100.00;50420.59;5069010;28;20028;-73
2021/10/20 10:58:27;;;;;;;3.67;1.48;;;;;;;-149.78;100.00;50447.97;5067015;28;20373;-73
2021/10/20 11:00:52;;;;;;;5.53;1.30;;;;;;;-149.78;100.00;50358.00;5054517;28;20036;-73
2021/10/20 11:03:28;;;;;;;3.83;1.20;;;;;;;-149.78;100.00;50393.22;5052683;28;20029;-73